createdAt,value
2018-06-09T00:01:03.276Z,95.30
2018-06-09T00:06:00.832Z,95.30
2018-06-09T00:08:29.746Z,94.90
2018-06-09T00:10:58.675Z,95.50
2018-06-09T00:13:27.536Z,94.80
2018-06-09T00:15:56.333Z,94.90
2018-06-09T00:18:25.245Z,94.90
2018-06-09T00:20:54.043Z,95.30
2018-06-09T00:23:22.866Z,95.40
2018-06-09T00:25:51.724Z,95.00
2018-06-09T00:28:20.631Z,95.20
2018-06-09T00:30:49.464Z,95.20
2018-06-09T00:33:18.315Z,95.50
2018-06-09T00:35:47.160Z,95.20
2018-06-09T00:38:16.094Z,94.70
2018-06-09T00:40:44.973Z,95.30
2018-06-09T00:43:13.813Z,95.30
2018-06-09T00:45:42.652Z,95.60
2018-06-09T00:48:11.502Z,95.50
2018-06-09T00:50:40.357Z,95.30
2018-06-09T00:53:09.206Z,96.20
2018-06-09T00:55:38.050Z,95.40
2018-06-09T00:58:06.958Z,95.60
2018-06-09T01:00:36.118Z,95.60
2018-06-09T01:03:05.005Z,95.80
2018-06-09T01:05:33.866Z,96.10
2018-06-09T01:09:07.603Z,96.70
2018-06-09T01:11:36.534Z,96.70
2018-06-09T01:16:34.186Z,95.70
2018-06-09T01:19:03.072Z,96.30
2018-06-09T01:21:31.948Z,96.50
2018-06-09T01:24:00.860Z,96.30
2018-06-09T01:26:29.744Z,96.50
2018-06-09T01:28:58.600Z,96.50
2018-06-09T01:31:27.478Z,96.40
2018-06-09T01:33:56.328Z,96.10
2018-06-09T01:36:25.152Z,95.60
2018-06-09T01:38:56.090Z,96.40
2018-06-09T01:41:24.963Z,97.00
2018-06-09T01:46:22.517Z,96.20
2018-06-09T01:48:52.372Z,96.20
2018-06-09T01:51:21.208Z,96.40
2018-06-09T01:53:50.039Z,96.00
2018-06-09T01:56:18.874Z,96.10
2018-06-09T01:58:47.734Z,96.20
2018-06-09T02:01:16.576Z,96.20
2018-06-09T02:03:45.359Z,96.30
2018-06-09T02:06:14.175Z,96.10
2018-06-09T02:11:11.830Z,96.20
2018-06-09T02:13:40.691Z,95.10
2018-06-09T02:16:09.543Z,96.00
2018-06-09T02:18:38.484Z,96.20
2018-06-09T02:21:07.324Z,96.00
2018-06-09T02:23:36.172Z,96.00
2018-06-09T02:26:05.048Z,96.10
2018-06-09T02:28:33.904Z,96.00
2018-06-09T02:31:02.750Z,95.80
2018-06-09T02:33:31.575Z,95.30
2018-06-09T02:36:00.404Z,96.00
2018-06-09T02:38:29.248Z,95.80
2018-06-09T02:40:58.054Z,96.00
2018-06-09T02:43:26.866Z,95.90
2018-06-09T02:45:55.722Z,95.60
2018-06-09T02:48:24.604Z,95.60
2018-06-09T02:50:53.455Z,95.50
2018-06-09T02:53:22.493Z,95.70
2018-06-09T02:58:20.237Z,95.70
2018-06-09T03:00:49.089Z,95.40
2018-06-09T03:03:17.931Z,96.00
2018-06-09T03:05:46.792Z,95.90
2018-06-09T03:08:15.749Z,95.60
2018-06-09T03:10:44.566Z,96.00
2018-06-09T03:13:13.404Z,96.10
2018-06-09T03:15:42.266Z,96.00
2018-06-09T03:18:11.211Z,95.90
2018-06-09T03:20:40.103Z,95.90
2018-06-09T03:23:08.928Z,96.10
2018-06-09T03:25:37.796Z,96.00
2018-06-09T03:28:06.648Z,95.80
2018-06-09T03:30:35.523Z,96.10
2018-06-09T03:33:04.407Z,96.10
2018-06-09T03:35:33.247Z,96.10
2018-06-09T03:38:02.128Z,96.20
2018-06-09T03:40:30.988Z,96.10
2018-06-09T03:45:28.644Z,96.10
2018-06-09T03:47:57.577Z,95.80
2018-06-09T03:50:26.433Z,96.10
2018-06-09T03:52:55.773Z,95.30
2018-06-09T03:55:24.695Z,96.40
2018-06-09T03:57:53.528Z,96.00
2018-06-09T04:00:22.418Z,96.20
2018-06-09T04:02:51.323Z,96.30
2018-06-09T04:05:20.860Z,95.40
2018-06-09T04:07:49.874Z,95.90
2018-06-09T04:10:18.727Z,96.50
2018-06-09T04:12:47.540Z,96.00
2018-06-09T04:15:16.403Z,96.30
2018-06-09T04:17:45.321Z,95.90
2018-06-09T04:20:14.195Z,96.10
2018-06-09T04:22:43.038Z,96.50
2018-06-09T04:25:11.872Z,96.20
2018-06-09T04:27:40.762Z,96.60
2018-06-09T04:30:09.601Z,96.60
2018-06-09T04:32:38.867Z,96.70
2018-06-09T04:35:07.769Z,96.60
2018-06-09T04:37:36.738Z,96.60
2018-06-09T04:40:05.926Z,96.50
2018-06-09T04:42:35.785Z,96.00
2018-06-09T04:45:05.332Z,96.40
2018-06-09T04:47:34.208Z,96.40
2018-06-09T04:50:03.100Z,95.90
2018-06-09T04:55:01.173Z,96.10
2018-06-09T04:57:31.353Z,96.60
2018-06-09T05:00:00.233Z,96.30
2018-06-09T05:02:29.455Z,96.60
2018-06-09T05:04:58.434Z,96.80
2018-06-09T05:07:29.025Z,96.80
2018-06-09T05:09:58.224Z,96.70
2018-06-09T05:12:27.359Z,96.30
2018-06-09T05:14:56.435Z,96.50
2018-06-09T05:17:25.346Z,96.40
2018-06-09T05:19:54.611Z,96.60
2018-06-09T05:22:23.696Z,96.70
2018-06-09T05:24:52.610Z,96.60
2018-06-09T05:27:22.023Z,96.10
2018-06-09T05:32:19.701Z,95.70
2018-06-09T05:34:48.552Z,95.40
2018-06-09T05:37:17.511Z,95.50
2018-06-09T05:39:46.350Z,95.60
2018-06-09T05:42:15.720Z,95.80
2018-06-09T05:44:44.833Z,95.80
2018-06-09T05:47:13.787Z,95.80
2018-06-09T05:49:42.931Z,96.30
2018-06-09T05:52:11.779Z,96.20
2018-06-09T05:54:40.635Z,96.70
2018-06-09T05:57:09.536Z,96.80
2018-06-09T05:59:38.386Z,96.70
2018-06-09T06:02:07.565Z,96.60
2018-06-09T06:04:36.437Z,97.20
2018-06-09T06:07:05.304Z,96.90
2018-06-09T06:09:34.163Z,96.90
2018-06-09T06:12:03.174Z,96.60
2018-06-09T06:14:32.014Z,96.30
2018-06-09T06:17:00.996Z,96.30
2018-06-09T06:19:29.832Z,96.30
2018-06-09T06:21:58.644Z,96.70
2018-06-09T06:24:27.502Z,96.40
2018-06-09T06:29:25.540Z,96.50
2018-06-09T06:31:54.708Z,96.20
2018-06-09T06:34:23.903Z,95.80
2018-06-09T06:36:52.960Z,96.70
2018-06-09T06:39:22.021Z,96.90
2018-06-09T06:41:51.264Z,97.00
2018-06-09T06:44:20.231Z,96.80
2018-06-09T06:46:49.428Z,97.00
2018-06-09T06:49:18.255Z,96.40
2018-06-09T06:51:47.104Z,96.20
2018-06-09T06:54:16.103Z,95.80
2018-06-09T06:56:44.992Z,96.30
2018-06-09T06:59:13.843Z,96.20
2018-06-09T07:01:42.719Z,96.10
2018-06-09T07:04:11.999Z,95.80
2018-06-09T07:06:40.827Z,95.50
2018-06-09T07:09:09.648Z,94.70
2018-06-09T07:11:38.539Z,95.20
2018-06-09T07:14:07.420Z,95.40
2018-06-09T07:16:36.275Z,95.20
2018-06-09T07:19:05.191Z,95.60
2018-06-09T07:21:34.072Z,95.10
2018-06-09T07:24:02.916Z,95.00
2018-06-09T07:26:31.999Z,95.70
2018-06-09T07:29:00.951Z,95.50
2018-06-09T07:31:29.807Z,95.70
2018-06-09T07:33:58.688Z,95.70
2018-06-09T07:36:27.544Z,95.40
2018-06-09T07:38:56.482Z,95.40
2018-06-09T07:43:54.039Z,95.10
2018-06-09T07:46:22.839Z,94.40
2018-06-09T07:48:51.766Z,94.50
2018-06-09T07:51:20.656Z,94.70
2018-06-09T07:53:49.471Z,94.40
2018-06-09T07:56:18.507Z,94.60
2018-06-09T07:58:47.407Z,94.00
2018-06-09T08:01:16.275Z,93.80
2018-06-09T08:03:45.107Z,93.90
2018-06-09T08:06:13.967Z,94.00
2018-06-09T08:13:40.356Z,93.70
2018-06-09T08:18:37.936Z,93.80
2018-06-09T08:21:06.788Z,93.80
2018-06-09T08:23:35.603Z,94.10
2018-06-09T08:26:04.810Z,93.30
2018-06-09T08:28:33.700Z,93.30
2018-06-09T08:31:02.547Z,93.30
2018-06-09T08:33:31.388Z,93.30
2018-06-09T08:36:00.292Z,92.30
2018-06-09T08:38:29.179Z,93.10
2018-06-09T08:40:58.029Z,92.70
2018-06-09T08:45:55.744Z,92.70
2018-06-09T08:48:24.624Z,93.00
2018-06-09T08:50:53.500Z,93.20
2018-06-09T08:55:51.101Z,92.40
2018-06-09T08:58:20.144Z,91.70
2018-06-09T09:00:49.011Z,91.90
2018-06-09T09:03:17.900Z,91.20
2018-06-09T09:05:46.766Z,93.00
2018-06-09T09:08:15.652Z,91.90
2018-06-09T09:10:44.566Z,91.60
2018-06-09T09:13:13.415Z,91.50
2018-06-09T09:15:42.484Z,91.20
2018-06-09T09:18:11.414Z,90.50
2018-06-09T09:20:40.275Z,90.20
2018-06-09T09:23:09.158Z,90.70
2018-06-09T09:28:06.807Z,89.00
2018-06-09T09:30:35.669Z,87.50
2018-06-09T09:33:04.613Z,86.80
2018-06-09T09:35:33.462Z,88.30
2018-06-09T09:38:02.347Z,89.30
2018-06-09T09:40:31.222Z,88.70
2018-06-09T09:43:00.084Z,89.30
2018-06-09T09:45:28.978Z,88.10
2018-06-09T09:47:58.115Z,90.80
2018-06-09T09:50:27.294Z,90.50
2018-06-09T09:52:56.257Z,89.30
2018-06-09T09:58:00.452Z,86.20
2018-06-09T10:00:35.442Z,86.00
2018-06-09T10:03:04.670Z,84.60
2018-06-09T10:05:33.539Z,87.40
2018-06-09T10:10:32.516Z,85.30
2018-06-09T10:13:01.329Z,85.90
2018-06-09T10:17:59.024Z,83.70
2018-06-09T10:20:27.898Z,83.10
2018-06-09T10:22:56.744Z,83.80
2018-06-09T10:25:25.603Z,84.00
2018-06-09T10:27:54.485Z,81.70
2018-06-09T10:30:23.331Z,84.30
2018-06-09T10:32:52.274Z,84.30
2018-06-09T10:35:21.076Z,84.30
2018-06-09T10:37:51.176Z,84.70
2018-06-09T10:40:20.011Z,82.40
2018-06-09T10:42:48.912Z,86.10
2018-06-09T10:45:17.787Z,85.30
2018-06-09T10:47:47.429Z,82.00
2018-06-09T10:50:16.796Z,81.40
2018-06-09T10:52:45.690Z,84.20
2018-06-09T10:55:14.541Z,85.70
2018-06-09T10:57:43.416Z,85.00
2018-06-09T11:00:12.260Z,78.50
2018-06-09T11:02:41.138Z,81.90
2018-06-09T11:05:10.122Z,81.10
2018-06-09T11:07:38.989Z,80.10
2018-06-09T11:12:37.239Z,81.60
2018-06-09T11:15:06.568Z,83.90
2018-06-09T11:17:35.479Z,83.60
2018-06-09T11:20:04.997Z,83.20
2018-06-09T11:22:33.946Z,84.10
2018-06-09T11:25:02.833Z,83.90
2018-06-09T11:27:31.755Z,81.60
2018-06-09T11:30:00.600Z,84.30
2018-06-09T11:32:29.980Z,84.10
2018-06-09T11:34:59.607Z,83.30
2018-06-09T11:37:28.572Z,80.70
2018-06-09T11:39:57.427Z,79.50
2018-06-09T11:42:26.292Z,82.20
2018-06-09T11:44:55.143Z,82.00
2018-06-09T11:47:24.707Z,80.50
2018-06-09T11:49:53.980Z,80.70
2018-06-09T11:52:22.864Z,82.40
2018-06-09T11:54:52.188Z,76.80
2018-06-09T11:57:21.083Z,76.40
2018-06-09T11:59:49.912Z,77.10
2018-06-09T12:02:18.798Z,79.50
2018-06-09T12:04:47.653Z,75.80
2018-06-09T12:07:16.565Z,74.20
2018-06-09T12:09:45.436Z,73.90
2018-06-09T12:12:14.698Z,73.10
2018-06-09T12:14:43.757Z,76.00
2018-06-09T12:17:12.651Z,76.20
2018-06-09T12:19:41.504Z,73.60
2018-06-09T12:22:10.360Z,74.00
2018-06-09T12:24:39.228Z,71.90
2018-06-09T12:27:08.091Z,70.70
2018-06-09T12:29:36.963Z,69.70
2018-06-09T12:34:34.579Z,72.00
2018-06-09T12:37:03.882Z,74.80
2018-06-09T12:39:32.765Z,72.80
2018-06-09T12:42:01.604Z,71.50
2018-06-09T12:44:30.594Z,67.90
2018-06-09T12:46:59.836Z,67.80
2018-06-09T12:49:28.676Z,67.00
2018-06-09T12:51:57.483Z,69.90
2018-06-09T12:54:26.359Z,68.20
2018-06-09T12:56:55.319Z,68.80
2018-06-09T12:59:24.168Z,66.50
2018-06-09T13:01:52.979Z,68.30
2018-06-09T13:04:21.831Z,66.40
2018-06-09T13:06:50.663Z,66.10
2018-06-09T13:09:19.538Z,65.00
2018-06-09T13:11:48.403Z,65.90
2018-06-09T13:14:17.251Z,63.70
2018-06-09T13:16:46.103Z,67.40
2018-06-09T13:19:14.925Z,67.00
2018-06-09T13:21:43.900Z,63.00
2018-06-09T13:24:12.705Z,68.60
2018-06-09T13:26:41.576Z,69.20
2018-06-09T13:29:10.472Z,69.00
2018-06-09T13:31:39.295Z,69.20
2018-06-09T13:34:08.126Z,66.70
2018-06-09T13:39:07.393Z,67.50
2018-06-09T13:41:36.424Z,67.90
2018-06-09T13:44:05.286Z,68.90
2018-06-09T13:46:34.156Z,67.50
2018-06-09T13:49:03.059Z,63.00
2018-06-09T13:51:31.932Z,69.30
2018-06-09T13:54:00.785Z,60.40
2018-06-09T13:56:29.672Z,59.80
2018-06-09T13:58:58.572Z,59.10
2018-06-09T14:01:27.452Z,58.10
2018-06-09T14:03:56.301Z,61.70
2018-06-09T14:06:25.144Z,58.20
2018-06-09T14:08:54.102Z,58.90
2018-06-09T14:11:22.939Z,59.50
2018-06-09T14:13:51.820Z,60.10
2018-06-09T14:16:20.659Z,59.90
2018-06-09T14:18:49.486Z,62.70
2018-06-09T14:21:18.343Z,64.00
2018-06-09T14:23:47.186Z,67.70
2018-06-09T14:28:44.843Z,65.70
2018-06-09T14:31:13.720Z,65.20
2018-06-09T14:33:42.620Z,67.20
2018-06-09T14:36:11.442Z,66.40
2018-06-09T14:38:40.361Z,67.10
2018-06-09T14:41:16.050Z,67.40
2018-06-09T14:46:13.860Z,68.80
2018-06-09T14:48:42.749Z,69.00
2018-06-09T14:51:11.582Z,71.40
2018-06-09T14:53:40.449Z,67.10
2018-06-09T14:56:09.290Z,66.50
2018-06-09T15:01:06.972Z,68.60
2018-06-09T15:06:04.659Z,65.20
2018-06-09T15:11:03.541Z,66.70
2018-06-09T15:13:32.359Z,68.00
2018-06-09T15:16:01.200Z,69.00
2018-06-09T15:18:30.154Z,68.70
2018-06-09T15:20:59.051Z,66.60
2018-06-09T15:23:27.917Z,64.60
2018-06-09T15:28:25.538Z,63.80
2018-06-09T15:30:54.371Z,65.70
2018-06-09T15:33:23.183Z,66.90
2018-06-09T15:35:52.019Z,66.90
2018-06-09T15:38:21.011Z,67.60
2018-06-09T15:40:49.860Z,66.90
2018-06-09T15:43:18.750Z,66.10
2018-06-09T15:45:47.604Z,68.10
2018-06-09T15:48:16.567Z,67.70
2018-06-09T15:50:45.425Z,68.20
2018-06-09T15:53:14.279Z,68.20
2018-06-09T15:55:43.127Z,66.30
2018-06-09T15:58:12.095Z,65.90
2018-06-09T16:00:40.920Z,71.20
2018-06-09T16:03:09.759Z,69.90
2018-06-09T16:05:38.603Z,70.80
2018-06-09T16:08:07.536Z,73.20
2018-06-09T16:10:36.356Z,72.90
2018-06-09T16:13:05.256Z,70.10
2018-06-09T16:15:34.096Z,70.10
2018-06-09T16:18:03.032Z,70.40
2018-06-09T16:20:31.869Z,69.30
2018-06-09T16:23:00.704Z,70.90
2018-06-09T16:25:29.597Z,70.90
2018-06-09T16:27:58.459Z,69.80
2018-06-09T16:30:27.322Z,68.80
2018-06-09T16:32:56.167Z,68.90
2018-06-09T16:35:25.013Z,70.70
2018-06-09T16:37:53.932Z,71.60
2018-06-09T16:40:22.788Z,71.50
2018-06-09T16:42:51.632Z,71.10
2018-06-09T16:45:20.471Z,70.00
2018-06-09T16:48:52.837Z,70.30
2018-06-09T16:51:21.651Z,71.10
2018-06-09T16:56:19.185Z,74.00
2018-06-09T16:58:48.130Z,72.40
2018-06-09T17:01:16.956Z,71.30
2018-06-09T17:03:45.747Z,72.30
2018-06-09T17:06:14.568Z,72.60
2018-06-09T17:08:43.494Z,72.40
2018-06-09T17:11:12.359Z,72.20
2018-06-09T17:13:41.182Z,72.50
2018-06-09T17:16:10.108Z,73.00
2018-06-09T17:18:38.955Z,73.50
2018-06-09T17:21:07.835Z,73.30
2018-06-09T17:23:36.852Z,73.20
2018-06-09T17:26:05.807Z,73.70
2018-06-09T17:28:34.726Z,73.50
2018-06-09T17:31:03.588Z,77.20
2018-06-09T17:36:01.249Z,76.20
2018-06-09T17:38:30.174Z,74.40
2018-06-09T17:40:58.998Z,74.60
2018-06-09T17:43:27.835Z,74.90
2018-06-09T17:45:56.660Z,77.60
2018-06-09T17:48:25.516Z,77.60
2018-06-09T17:50:54.355Z,77.00
2018-06-09T17:53:23.243Z,78.90
2018-06-09T17:55:52.076Z,79.30
2018-06-09T17:58:21.034Z,78.20
2018-06-09T18:00:49.867Z,78.80
2018-06-09T18:03:18.740Z,79.10
2018-06-09T18:08:16.454Z,80.80
2018-06-09T18:10:45.311Z,80.20
2018-06-09T18:13:14.171Z,81.20
2018-06-09T18:15:43.012Z,81.90
2018-06-09T18:18:11.907Z,82.40
2018-06-09T18:20:40.740Z,82.40
2018-06-09T18:23:09.599Z,83.10
2018-06-09T18:25:38.431Z,84.50
2018-06-09T18:28:07.439Z,84.20
2018-06-09T18:30:36.355Z,83.80
2018-06-09T18:33:05.204Z,83.00
2018-06-09T18:35:34.032Z,82.70
2018-06-09T18:38:02.952Z,83.30
2018-06-09T18:40:31.828Z,83.80
2018-06-09T18:43:00.659Z,84.10
2018-06-09T18:45:29.520Z,85.00
2018-06-09T18:47:58.404Z,84.50
2018-06-09T18:50:27.268Z,83.80
2018-06-09T18:52:56.101Z,84.00
2018-06-09T18:55:24.923Z,85.20
2018-06-09T18:57:54.207Z,85.60
2018-06-09T19:00:23.059Z,85.80
2018-06-09T19:02:51.972Z,85.70
2018-06-09T19:05:20.846Z,85.90
2018-06-09T19:07:49.738Z,86.80
2018-06-09T19:10:18.604Z,87.10
2018-06-09T19:12:47.442Z,87.20
2018-06-09T19:15:16.289Z,87.20
2018-06-09T19:20:13.988Z,86.50
2018-06-09T19:22:42.847Z,86.40
2018-06-09T19:25:11.695Z,86.60
2018-06-09T19:27:40.553Z,86.90
2018-06-09T19:30:09.390Z,86.90
2018-06-09T19:32:38.299Z,87.20
2018-06-09T19:37:36.031Z,88.60
2018-06-09T19:40:04.912Z,89.00
2018-06-09T19:42:33.800Z,88.70
2018-06-09T19:45:03.282Z,88.30
2018-06-09T19:47:32.708Z,88.70
2018-06-09T19:50:01.623Z,89.10
2018-06-09T19:52:31.016Z,89.30
2018-06-09T19:55:01.053Z,89.20
2018-06-09T19:57:30.468Z,89.10
2018-06-09T20:00:00.062Z,89.10
2018-06-09T20:02:29.184Z,88.60
2018-06-09T20:04:58.428Z,88.20
2018-06-09T20:07:27.901Z,89.90
2018-06-09T20:09:56.816Z,90.10
2018-06-09T20:12:25.676Z,90.30
2018-06-09T20:14:54.616Z,90.10
2018-06-09T20:17:23.492Z,90.20
2018-06-09T20:19:52.383Z,90.30
2018-06-09T20:22:21.243Z,90.00
2018-06-09T20:24:50.113Z,90.70
2018-06-09T20:27:19.051Z,90.10
2018-06-09T20:29:47.889Z,90.30
2018-06-09T20:32:16.904Z,90.20
2018-06-09T20:34:45.844Z,89.70
2018-06-09T20:37:14.744Z,90.00
2018-06-09T20:39:43.639Z,90.40
2018-06-09T20:42:13.394Z,90.30
2018-06-09T20:44:42.294Z,90.40
2018-06-09T20:47:11.212Z,90.40
2018-06-09T20:49:40.071Z,90.50
2018-06-09T20:52:08.892Z,90.80
2018-06-09T20:54:38.103Z,91.00
2018-06-09T20:57:07.100Z,90.70
2018-06-09T20:59:36.407Z,90.80
2018-06-09T21:02:05.377Z,90.90
2018-06-09T21:04:34.260Z,90.80
2018-06-09T21:07:04.263Z,90.80
2018-06-09T21:09:33.172Z,90.90
2018-06-09T21:12:02.031Z,90.90
2018-06-09T21:14:32.449Z,90.90
2018-06-09T21:17:01.784Z,90.90
2018-06-09T21:19:30.690Z,90.90
2018-06-09T21:21:59.539Z,90.90
2018-06-09T21:24:28.405Z,90.60
2018-06-09T21:27:02.859Z,90.40
2018-06-09T21:29:38.233Z,90.10
2018-06-09T21:32:08.717Z,90.40
2018-06-09T21:35:00.099Z,90.60
2018-06-09T21:37:35.380Z,90.70
2018-06-09T21:42:48.896Z,90.90
2018-06-09T21:45:28.260Z,90.90
2018-06-09T21:50:25.948Z,91.20
2018-06-09T21:52:54.803Z,90.70
2018-06-09T21:55:23.671Z,90.80
2018-06-09T21:57:52.698Z,90.90
2018-06-09T22:00:26.056Z,91.10
2018-06-09T22:02:55.694Z,91.00
2018-06-09T22:05:24.604Z,91.10
2018-06-09T22:07:53.512Z,91.30
2018-06-09T22:10:22.492Z,91.20
2018-06-09T22:15:20.108Z,91.60
2018-06-09T22:17:48.970Z,91.70
2018-06-09T22:22:46.563Z,91.80
2018-06-09T22:25:19.929Z,91.80
2018-06-09T22:27:48.859Z,91.90
2018-06-09T22:30:17.711Z,92.10
2018-06-09T22:32:46.552Z,92.10
2018-06-09T22:35:15.395Z,92.20
2018-06-09T22:40:13.047Z,92.10
2018-06-09T22:42:41.870Z,92.20
2018-06-09T22:45:10.743Z,92.20
2018-06-09T22:47:39.664Z,92.10
2018-06-09T22:50:08.567Z,92.10
2018-06-09T22:52:37.404Z,92.20
2018-06-09T22:55:06.324Z,92.20
2018-06-09T22:57:35.234Z,92.90
2018-06-09T23:00:04.352Z,92.30
2018-06-09T23:02:33.184Z,92.40
2018-06-09T23:05:02.073Z,92.40
2018-06-09T23:09:59.726Z,92.20
2018-06-09T23:12:28.611Z,92.40
2018-06-09T23:14:57.477Z,92.30
2018-06-09T23:17:26.327Z,92.10
2018-06-09T23:22:23.976Z,92.00
2018-06-09T23:24:52.780Z,92.10
2018-06-09T23:27:21.709Z,92.20
2018-06-09T23:29:50.532Z,92.30
2018-06-09T23:32:19.409Z,92.40
2018-06-09T23:34:48.311Z,92.50
2018-06-09T23:37:17.168Z,92.40
2018-06-09T23:39:46.108Z,92.60
2018-06-09T23:42:14.970Z,92.50
2018-06-09T23:44:43.791Z,92.40
2018-06-09T23:47:12.643Z,92.80
2018-06-09T23:49:41.528Z,92.80
2018-06-09T23:52:10.567Z,92.70
2018-06-09T23:54:39.455Z,92.70
2018-06-09T23:57:08.396Z,92.70
2018-06-09T23:59:37.275Z,92.70
